sensor_id;sensor_type;location;lat;lon;timestamp;temperature;humidity
64705;DHT22;51131;52.298;13.686;2023-05-29T00:00:46;20.00;57.30
64705;DHT22;51131;52.298;13.686;2023-05-29T00:03:13;20.00;57.20
64705;DHT22;51131;52.298;13.686;2023-05-29T00:05:39;20.00;57.40
64705;DHT22;51131;52.298;13.686;2023-05-29T00:08:07;20.10;57.40
64705;DHT22;51131;52.298;13.686;2023-05-29T00:10:33;20.00;57.30
64705;DHT22;51131;52.298;13.686;2023-05-29T00:13:01;20.00;57.40
64705;DHT22;51131;52.298;13.686;2023-05-29T00:15:30;19.90;57.30
64705;DHT22;51131;52.298;13.686;2023-05-29T00:17:56;20.00;57.30
64705;DHT22;51131;52.298;13.686;2023-05-29T00:20:23;19.90;57.30
64705;DHT22;51131;52.298;13.686;2023-05-29T00:22:50;19.90;57.40
64705;DHT22;51131;52.298;13.686;2023-05-29T00:25:17;19.90;57.50
64705;DHT22;51131;52.298;13.686;2023-05-29T00:27:44;19.90;57.60
64705;DHT22;51131;52.298;13.686;2023-05-29T00:30:11;19.90;57.50
64705;DHT22;51131;52.298;13.686;2023-05-29T00:32:37;19.90;57.70
64705;DHT22;51131;52.298;13.686;2023-05-29T00:35:04;20.00;57.60
64705;DHT22;51131;52.298;13.686;2023-05-29T00:37:31;19.90;57.50
64705;DHT22;51131;52.298;13.686;2023-05-29T00:39:58;19.90;57.50
64705;DHT22;51131;52.298;13.686;2023-05-29T00:42:25;20.10;57.60
64705;DHT22;51131;52.298;13.686;2023-05-29T00:44:52;20.00;57.50
64705;DHT22;51131;52.298;13.686;2023-05-29T00:47:18;19.90;57.50
64705;DHT22;51131;52.298;13.686;2023-05-29T00:49:45;20.00;57.50
64705;DHT22;51131;52.298;13.686;2023-05-29T00:52:11;19.90;57.50
64705;DHT22;51131;52.298;13.686;2023-05-29T00:54:43;19.90;57.50
64705;DHT22;51131;52.298;13.686;2023-05-29T00:57:10;19.90;57.70
64705;DHT22;51131;52.298;13.686;2023-05-29T00:59:38;19.90;58.10
64705;DHT22;51131;52.298;13.686;2023-05-29T01:02:06;19.90;57.50
64705;DHT22;51131;52.298;13.686;2023-05-29T01:04:33;20.00;57.70
64705;DHT22;51131;52.298;13.686;2023-05-29T01:07:00;19.90;57.50
64705;DHT22;51131;52.298;13.686;2023-05-29T01:09:29;20.00;57.60
64705;DHT22;51131;52.298;13.686;2023-05-29T01:12:02;19.90;57.50
64705;DHT22;51131;52.298;13.686;2023-05-29T01:14:36;19.90;57.60
64705;DHT22;51131;52.298;13.686;2023-05-29T01:17:07;19.90;57.80
64705;DHT22;51131;52.298;13.686;2023-05-29T01:22:12;19.90;57.70
64705;DHT22;51131;52.298;13.686;2023-05-29T01:27:07;19.80;57.70
64705;DHT22;51131;52.298;13.686;2023-05-29T01:29:37;20.00;57.90
64705;DHT22;51131;52.298;13.686;2023-05-29T01:32:05;19.90;57.70
64705;DHT22;51131;52.298;13.686;2023-05-29T01:34:33;19.90;57.60
64705;DHT22;51131;52.298;13.686;2023-05-29T01:36:59;19.90;57.50
64705;DHT22;51131;52.298;13.686;2023-05-29T01:39:26;19.90;57.50
64705;DHT22;51131;52.298;13.686;2023-05-29T01:41:53;20.00;57.60
64705;DHT22;51131;52.298;13.686;2023-05-29T01:44:21;20.00;57.60
64705;DHT22;51131;52.298;13.686;2023-05-29T01:46:48;20.00;57.70
64705;DHT22;51131;52.298;13.686;2023-05-29T01:49:15;19.90;57.50
64705;DHT22;51131;52.298;13.686;2023-05-29T01:51:42;19.90;57.70
64705;DHT22;51131;52.298;13.686;2023-05-29T01:54:09;19.90;57.70
64705;DHT22;51131;52.298;13.686;2023-05-29T01:56:36;20.00;57.80
64705;DHT22;51131;52.298;13.686;2023-05-29T01:59:03;19.90;57.80
64705;DHT22;51131;52.298;13.686;2023-05-29T02:01:31;19.90;57.90
64705;DHT22;51131;52.298;13.686;2023-05-29T02:03:57;19.90;57.90
64705;DHT22;51131;52.298;13.686;2023-05-29T02:06:24;19.90;57.80
64705;DHT22;51131;52.298;13.686;2023-05-29T02:08:51;19.90;57.70
64705;DHT22;51131;52.298;13.686;2023-05-29T02:11:18;19.90;57.70
64705;DHT22;51131;52.298;13.686;2023-05-29T02:13:44;19.90;57.70
64705;DHT22;51131;52.298;13.686;2023-05-29T02:16:11;19.90;57.90
64705;DHT22;51131;52.298;13.686;2023-05-29T02:18:38;19.90;57.80
64705;DHT22;51131;52.298;13.686;2023-05-29T02:21:04;20.00;58.00
64705;DHT22;51131;52.298;13.686;2023-05-29T02:23:31;19.90;57.80
64705;DHT22;51131;52.298;13.686;2023-05-29T02:25:57;19.90;57.90
64705;DHT22;51131;52.298;13.686;2023-05-29T02:28:24;19.90;57.80
64705;DHT22;51131;52.298;13.686;2023-05-29T02:30:51;19.90;57.80
64705;DHT22;51131;52.298;13.686;2023-05-29T02:33:18;20.00;57.80
64705;DHT22;51131;52.298;13.686;2023-05-29T02:35:44;19.90;57.70
64705;DHT22;51131;52.298;13.686;2023-05-29T02:38:11;20.50;58.30
64705;DHT22;51131;52.298;13.686;2023-05-29T02:40:38;19.90;57.70
64705;DHT22;51131;52.298;13.686;2023-05-29T02:43:05;19.90;57.70
64705;DHT22;51131;52.298;13.686;2023-05-29T02:45:31;19.90;57.70
64705;DHT22;51131;52.298;13.686;2023-05-29T02:47:58;20.10;57.60
64705;DHT22;51131;52.298;13.686;2023-05-29T02:50:26;20.10;57.70
64705;DHT22;51131;52.298;13.686;2023-05-29T02:52:52;20.10;57.50
64705;DHT22;51131;52.298;13.686;2023-05-29T02:55:19;20.10;57.30
64705;DHT22;51131;52.298;13.686;2023-05-29T02:57:46;20.10;57.30
64705;DHT22;51131;52.298;13.686;2023-05-29T03:00:15;20.20;57.20
64705;DHT22;51131;52.298;13.686;2023-05-29T03:02:41;20.20;57.20
64705;DHT22;51131;52.298;13.686;2023-05-29T03:05:08;20.40;57.90
64705;DHT22;51131;52.298;13.686;2023-05-29T03:07:35;20.30;57.20
64705;DHT22;51131;52.298;13.686;2023-05-29T03:10:02;20.20;57.10
64705;DHT22;51131;52.298;13.686;2023-05-29T03:12:30;20.20;57.20
64705;DHT22;51131;52.298;13.686;2023-05-29T03:14:57;20.20;57.20
64705;DHT22;51131;52.298;13.686;2023-05-29T03:17:23;20.10;57.20
64705;DHT22;51131;52.298;13.686;2023-05-29T03:19:50;20.10;57.20
64705;DHT22;51131;52.298;13.686;2023-05-29T03:22:17;20.10;57.20
64705;DHT22;51131;52.298;13.686;2023-05-29T03:24:44;20.10;57.30
64705;DHT22;51131;52.298;13.686;2023-05-29T03:27:11;20.10;57.30
64705;DHT22;51131;52.298;13.686;2023-05-29T03:29:38;20.00;57.30
64705;DHT22;51131;52.298;13.686;2023-05-29T03:32:04;20.10;57.40
64705;DHT22;51131;52.298;13.686;2023-05-29T03:34:31;20.00;57.30
64705;DHT22;51131;52.298;13.686;2023-05-29T03:36:58;20.50;57.80
64705;DHT22;51131;52.298;13.686;2023-05-29T03:39:24;20.00;57.40
64705;DHT22;51131;52.298;13.686;2023-05-29T03:41:51;20.00;57.50
64705;DHT22;51131;52.298;13.686;2023-05-29T03:44:18;19.90;57.30
64705;DHT22;51131;52.298;13.686;2023-05-29T03:46:44;20.10;57.50
64705;DHT22;51131;52.298;13.686;2023-05-29T03:49:11;20.00;57.50
64705;DHT22;51131;52.298;13.686;2023-05-29T03:51:38;19.90;57.50
64705;DHT22;51131;52.298;13.686;2023-05-29T03:54:05;19.90;57.50
64705;DHT22;51131;52.298;13.686;2023-05-29T03:56:32;19.90;57.50
64705;DHT22;51131;52.298;13.686;2023-05-29T03:58:58;19.90;57.50
64705;DHT22;51131;52.298;13.686;2023-05-29T04:01:25;19.90;57.50
64705;DHT22;51131;52.298;13.686;2023-05-29T04:03:52;20.00;57.50
64705;DHT22;51131;52.298;13.686;2023-05-29T04:06:19;20.00;57.50
64705;DHT22;51131;52.298;13.686;2023-05-29T04:08:45;20.10;57.60
64705;DHT22;51131;52.298;13.686;2023-05-29T04:11:13;19.90;57.50
64705;DHT22;51131;52.298;13.686;2023-05-29T04:13:40;20.00;57.60
64705;DHT22;51131;52.298;13.686;2023-05-29T04:16:07;20.00;57.60
64705;DHT22;51131;52.298;13.686;2023-05-29T04:18:34;19.90;57.50
64705;DHT22;51131;52.298;13.686;2023-05-29T04:21:00;20.00;57.60
64705;DHT22;51131;52.298;13.686;2023-05-29T04:23:27;19.90;57.50
64705;DHT22;51131;52.298;13.686;2023-05-29T04:25:54;19.90;57.50
64705;DHT22;51131;52.298;13.686;2023-05-29T04:28:20;20.20;57.80
64705;DHT22;51131;52.298;13.686;2023-05-29T04:30:48;19.90;57.60
64705;DHT22;51131;52.298;13.686;2023-05-29T04:33:15;19.90;57.50
64705;DHT22;51131;52.298;13.686;2023-05-29T04:35:41;19.90;57.50
64705;DHT22;51131;52.298;13.686;2023-05-29T04:38:11;19.90;57.60
64705;DHT22;51131;52.298;13.686;2023-05-29T04:40:38;19.90;57.50
64705;DHT22;51131;52.298;13.686;2023-05-29T04:43:06;20.10;57.70
64705;DHT22;51131;52.298;13.686;2023-05-29T04:45:34;20.00;57.70
64705;DHT22;51131;52.298;13.686;2023-05-29T04:48:04;19.90;57.70
64705;DHT22;51131;52.298;13.686;2023-05-29T04:50:30;19.90;57.70
64705;DHT22;51131;52.298;13.686;2023-05-29T04:52:58;20.00;57.80
64705;DHT22;51131;52.298;13.686;2023-05-29T04:55:25;20.00;57.90
64705;DHT22;51131;52.298;13.686;2023-05-29T04:57:51;19.90;57.90
64705;DHT22;51131;52.298;13.686;2023-05-29T05:00:19;19.90;57.70
64705;DHT22;51131;52.298;13.686;2023-05-29T05:02:46;19.90;57.70
64705;DHT22;51131;52.298;13.686;2023-05-29T05:05:13;19.90;57.70
64705;DHT22;51131;52.298;13.686;2023-05-29T05:07:39;19.90;57.60
64705;DHT22;51131;52.298;13.686;2023-05-29T05:10:06;20.10;57.80
64705;DHT22;51131;52.298;13.686;2023-05-29T05:12:33;19.70;57.50
64705;DHT22;51131;52.298;13.686;2023-05-29T05:15:00;19.90;57.70
64705;DHT22;51131;52.298;13.686;2023-05-29T05:17:27;20.00;57.70
64705;DHT22;51131;52.298;13.686;2023-05-29T05:19:53;20.10;57.80
64705;DHT22;51131;52.298;13.686;2023-05-29T05:22:20;20.20;57.90
64705;DHT22;51131;52.298;13.686;2023-05-29T05:24:47;20.00;57.70
64705;DHT22;51131;52.298;13.686;2023-05-29T05:27:13;20.10;57.80
64705;DHT22;51131;52.298;13.686;2023-05-29T05:29:40;20.00;57.70
64705;DHT22;51131;52.298;13.686;2023-05-29T05:32:07;20.00;57.70
64705;DHT22;51131;52.298;13.686;2023-05-29T05:34:34;19.90;57.60
64705;DHT22;51131;52.298;13.686;2023-05-29T05:37:01;20.30;57.90
64705;DHT22;51131;52.298;13.686;2023-05-29T05:39:29;20.00;57.80
64705;DHT22;51131;52.298;13.686;2023-05-29T05:41:56;20.00;57.70
64705;DHT22;51131;52.298;13.686;2023-05-29T05:44:22;19.90;57.70
64705;DHT22;51131;52.298;13.686;2023-05-29T05:46:49;20.00;57.80
64705;DHT22;51131;52.298;13.686;2023-05-29T05:49:16;20.20;58.00
64705;DHT22;51131;52.298;13.686;2023-05-29T05:51:42;19.90;57.90
64705;DHT22;51131;52.298;13.686;2023-05-29T05:54:09;20.00;58.00
64705;DHT22;51131;52.298;13.686;2023-05-29T05:56:36;20.00;57.80
64705;DHT22;51131;52.298;13.686;2023-05-29T05:59:03;20.00;57.90
64705;DHT22;51131;52.298;13.686;2023-05-29T06:01:30;20.00;57.80
64705;DHT22;51131;52.298;13.686;2023-05-29T06:03:56;20.10;57.80
64705;DHT22;51131;52.298;13.686;2023-05-29T06:06:23;20.20;58.00
64705;DHT22;51131;52.298;13.686;2023-05-29T06:08:50;20.10;57.80
64705;DHT22;51131;52.298;13.686;2023-05-29T06:11:17;20.20;58.00
64705;DHT22;51131;52.298;13.686;2023-05-29T06:13:43;20.20;58.20
64705;DHT22;51131;52.298;13.686;2023-05-29T06:16:10;20.10;58.10
64705;DHT22;51131;52.298;13.686;2023-05-29T06:18:37;20.00;58.10
64705;DHT22;51131;52.298;13.686;2023-05-29T06:21:03;20.00;58.20
64705;DHT22;51131;52.298;13.686;2023-05-29T06:23:31;20.00;58.20
64705;DHT22;51131;52.298;13.686;2023-05-29T06:25:59;20.00;58.30
64705;DHT22;51131;52.298;13.686;2023-05-29T06:28:25;20.00;58.20
64705;DHT22;51131;52.298;13.686;2023-05-29T06:30:52;20.00;58.50
64705;DHT22;51131;52.298;13.686;2023-05-29T06:33:19;20.00;58.30
64705;DHT22;51131;52.298;13.686;2023-05-29T06:35:47;20.10;58.50
64705;DHT22;51131;52.298;13.686;2023-05-29T06:38:14;20.00;58.50
64705;DHT22;51131;52.298;13.686;2023-05-29T06:40:41;20.00;58.50
64705;DHT22;51131;52.298;13.686;2023-05-29T06:43:08;20.00;58.50
64705;DHT22;51131;52.298;13.686;2023-05-29T06:45:36;20.00;58.40
64705;DHT22;51131;52.298;13.686;2023-05-29T06:48:02;19.90;58.60
64705;DHT22;51131;52.298;13.686;2023-05-29T06:50:29;19.90;58.40
64705;DHT22;51131;52.298;13.686;2023-05-29T06:52:56;20.10;58.70
64705;DHT22;51131;52.298;13.686;2023-05-29T06:55:23;20.00;58.50
64705;DHT22;51131;52.298;13.686;2023-05-29T06:57:49;20.00;58.50
64705;DHT22;51131;52.298;13.686;2023-05-29T07:00:17;20.30;58.60
64705;DHT22;51131;52.298;13.686;2023-05-29T07:02:43;20.00;58.20
64705;DHT22;51131;52.298;13.686;2023-05-29T07:05:10;20.00;58.30
64705;DHT22;51131;52.298;13.686;2023-05-29T07:07:37;20.20;57.60
64705;DHT22;51131;52.298;13.686;2023-05-29T07:10:04;19.50;57.50
64705;DHT22;51131;52.298;13.686;2023-05-29T07:12:32;20.20;57.80
64705;DHT22;51131;52.298;13.686;2023-05-29T07:14:59;20.40;58.10
64705;DHT22;51131;52.298;13.686;2023-05-29T07:17:25;20.20;57.80
64705;DHT22;51131;52.298;13.686;2023-05-29T07:19:52;20.30;57.80
64705;DHT22;51131;52.298;13.686;2023-05-29T07:22:20;20.20;57.30
64705;DHT22;51131;52.298;13.686;2023-05-29T07:24:47;20.30;57.50
64705;DHT22;51131;52.298;13.686;2023-05-29T07:27:14;20.30;57.30
64705;DHT22;51131;52.298;13.686;2023-05-29T07:29:40;20.30;57.40
64705;DHT22;51131;52.298;13.686;2023-05-29T07:32:08;20.30;57.60
64705;DHT22;51131;52.298;13.686;2023-05-29T07:34:35;20.30;57.80
64705;DHT22;51131;52.298;13.686;2023-05-29T07:37:03;20.30;57.90
64705;DHT22;51131;52.298;13.686;2023-05-29T07:39:30;20.30;58.00
64705;DHT22;51131;52.298;13.686;2023-05-29T07:41:58;20.30;57.70
64705;DHT22;51131;52.298;13.686;2023-05-29T07:44:24;20.40;56.70
64705;DHT22;51131;52.298;13.686;2023-05-29T07:46:51;20.20;57.40
64705;DHT22;51131;52.298;13.686;2023-05-29T07:49:19;20.20;57.60
64705;DHT22;51131;52.298;13.686;2023-05-29T07:51:46;20.20;58.10
64705;DHT22;51131;52.298;13.686;2023-05-29T07:54:12;20.20;57.20
64705;DHT22;51131;52.298;13.686;2023-05-29T07:56:39;20.40;58.00
64705;DHT22;51131;52.298;13.686;2023-05-29T07:59:07;20.20;58.20
64705;DHT22;51131;52.298;13.686;2023-05-29T08:01:35;20.30;58.00
64705;DHT22;51131;52.298;13.686;2023-05-29T08:04:02;20.20;58.00
64705;DHT22;51131;52.298;13.686;2023-05-29T08:06:29;20.20;58.40
64705;DHT22;51131;52.298;13.686;2023-05-29T08:08:55;20.50;58.70
64705;DHT22;51131;52.298;13.686;2023-05-29T08:11:22;20.10;58.70
64705;DHT22;51131;52.298;13.686;2023-05-29T08:13:49;20.20;58.60
64705;DHT22;51131;52.298;13.686;2023-05-29T08:16:16;20.10;58.10
64705;DHT22;51131;52.298;13.686;2023-05-29T08:18:43;20.10;59.70
64705;DHT22;51131;52.298;13.686;2023-05-29T08:21:10;20.10;58.50
64705;DHT22;51131;52.298;13.686;2023-05-29T08:23:37;20.20;58.00
64705;DHT22;51131;52.298;13.686;2023-05-29T08:26:04;20.20;57.80
64705;DHT22;51131;52.298;13.686;2023-05-29T08:28:31;20.20;58.00
64705;DHT22;51131;52.298;13.686;2023-05-29T08:30:57;20.10;57.90
64705;DHT22;51131;52.298;13.686;2023-05-29T08:33:24;20.30;58.30
64705;DHT22;51131;52.298;13.686;2023-05-29T08:35:51;20.40;58.50
64705;DHT22;51131;52.298;13.686;2023-05-29T08:38:17;20.20;58.20
64705;DHT22;51131;52.298;13.686;2023-05-29T08:40:44;20.20;58.40
64705;DHT22;51131;52.298;13.686;2023-05-29T08:43:20;20.20;58.60
64705;DHT22;51131;52.298;13.686;2023-05-29T08:45:47;20.20;58.80
64705;DHT22;51131;52.298;13.686;2023-05-29T08:48:14;20.30;58.10
64705;DHT22;51131;52.298;13.686;2023-05-29T08:50:43;20.30;58.30
64705;DHT22;51131;52.298;13.686;2023-05-29T08:53:14;20.20;58.10
64705;DHT22;51131;52.298;13.686;2023-05-29T08:55:42;20.20;58.40
64705;DHT22;51131;52.298;13.686;2023-05-29T08:58:09;20.20;58.40
64705;DHT22;51131;52.298;13.686;2023-05-29T09:00:36;20.20;58.80
64705;DHT22;51131;52.298;13.686;2023-05-29T09:03:03;20.20;58.70
64705;DHT22;51131;52.298;13.686;2023-05-29T09:05:30;20.30;58.80
64705;DHT22;51131;52.298;13.686;2023-05-29T09:07:57;20.10;58.80
64705;DHT22;51131;52.298;13.686;2023-05-29T09:10:24;20.10;58.70
64705;DHT22;51131;52.298;13.686;2023-05-29T09:12:52;20.10;58.50
64705;DHT22;51131;52.298;13.686;2023-05-29T09:15:20;20.10;58.90
64705;DHT22;51131;52.298;13.686;2023-05-29T09:17:50;20.10;58.90
64705;DHT22;51131;52.298;13.686;2023-05-29T09:20:18;20.10;59.30
64705;DHT22;51131;52.298;13.686;2023-05-29T09:25:24;20.10;59.20
64705;DHT22;51131;52.298;13.686;2023-05-29T09:27:54;20.00;58.90
64705;DHT22;51131;52.298;13.686;2023-05-29T09:30:34;20.20;58.80
64705;DHT22;51131;52.298;13.686;2023-05-29T09:33:01;20.10;59.00
64705;DHT22;51131;52.298;13.686;2023-05-29T09:35:32;20.10;59.60
64705;DHT22;51131;52.298;13.686;2023-05-29T09:37:59;20.00;59.40
64705;DHT22;51131;52.298;13.686;2023-05-29T09:40:29;20.00;59.00
64705;DHT22;51131;52.298;13.686;2023-05-29T09:43:01;20.10;59.20
64705;DHT22;51131;52.298;13.686;2023-05-29T09:45:29;20.10;58.80
64705;DHT22;51131;52.298;13.686;2023-05-29T09:47:58;20.00;58.70
64705;DHT22;51131;52.298;13.686;2023-05-29T09:50:26;20.10;59.10
64705;DHT22;51131;52.298;13.686;2023-05-29T09:52:52;20.00;58.90
64705;DHT22;51131;52.298;13.686;2023-05-29T09:55:20;20.00;58.60
64705;DHT22;51131;52.298;13.686;2023-05-29T09:57:47;20.00;58.40
64705;DHT22;51131;52.298;13.686;2023-05-29T10:00:17;20.20;58.90
64705;DHT22;51131;52.298;13.686;2023-05-29T10:02:43;20.00;58.90
64705;DHT22;51131;52.298;13.686;2023-05-29T10:05:10;20.10;59.10
64705;DHT22;51131;52.298;13.686;2023-05-29T10:07:38;20.00;59.50
64705;DHT22;51131;52.298;13.686;2023-05-29T10:10:09;20.00;59.50
64705;DHT22;51131;52.298;13.686;2023-05-29T10:12:39;20.00;59.90
64705;DHT22;51131;52.298;13.686;2023-05-29T10:15:21;20.00;59.80
64705;DHT22;51131;52.298;13.686;2023-05-29T10:17:50;20.00;59.90
64705;DHT22;51131;52.298;13.686;2023-05-29T10:20:19;20.00;60.10
64705;DHT22;51131;52.298;13.686;2023-05-29T10:22:47;20.00;59.80
64705;DHT22;51131;52.298;13.686;2023-05-29T10:25:14;20.00;59.60
64705;DHT22;51131;52.298;13.686;2023-05-29T10:27:44;20.20;59.50
64705;DHT22;51131;52.298;13.686;2023-05-29T10:30:15;20.00;59.90
64705;DHT22;51131;52.298;13.686;2023-05-29T10:33:07;20.00;59.60
64705;DHT22;51131;52.298;13.686;2023-05-29T10:35:40;20.00;59.70
64705;DHT22;51131;52.298;13.686;2023-05-29T10:38:10;20.00;60.10
64705;DHT22;51131;52.298;13.686;2023-05-29T10:40:37;20.00;59.60
64705;DHT22;51131;52.298;13.686;2023-05-29T10:43:04;20.00;60.00
64705;DHT22;51131;52.298;13.686;2023-05-29T10:50:41;20.00;60.00
64705;DHT22;51131;52.298;13.686;2023-05-29T10:53:09;20.00;60.30
64705;DHT22;51131;52.298;13.686;2023-05-29T10:55:39;20.40;60.50
64705;DHT22;51131;52.298;13.686;2023-05-29T10:58:07;20.00;60.50
64705;DHT22;51131;52.298;13.686;2023-05-29T11:00:34;20.20;60.70
64705;DHT22;51131;52.298;13.686;2023-05-29T11:03:08;20.60;61.10
64705;DHT22;51131;52.298;13.686;2023-05-29T11:05:35;20.00;60.50
64705;DHT22;51131;52.298;13.686;2023-05-29T11:08:35;20.00;60.20
64705;DHT22;51131;52.298;13.686;2023-05-29T11:11:02;20.00;60.60
64705;DHT22;51131;52.298;13.686;2023-05-29T11:13:34;20.00;59.70
64705;DHT22;51131;52.298;13.686;2023-05-29T11:16:11;20.00;59.80
64705;DHT22;51131;52.298;13.686;2023-05-29T11:18:43;20.00;59.80
64705;DHT22;51131;52.298;13.686;2023-05-29T11:23:59;19.90;60.10
64705;DHT22;51131;52.298;13.686;2023-05-29T11:26:33;19.90;59.90
64705;DHT22;51131;52.298;13.686;2023-05-29T11:29:00;20.50;60.10
64705;DHT22;51131;52.298;13.686;2023-05-29T11:31:28;20.00;60.10
64705;DHT22;51131;52.298;13.686;2023-05-29T11:33:59;19.90;60.00
64705;DHT22;51131;52.298;13.686;2023-05-29T11:36:26;20.00;60.20
64705;DHT22;51131;52.298;13.686;2023-05-29T11:38:53;19.90;60.10
64705;DHT22;51131;52.298;13.686;2023-05-29T11:41:20;19.90;60.10
64705;DHT22;51131;52.298;13.686;2023-05-29T11:43:57;19.90;61.30
64705;DHT22;51131;52.298;13.686;2023-05-29T11:46:24;19.80;60.40
64705;DHT22;51131;52.298;13.686;2023-05-29T11:48:52;19.90;60.60
64705;DHT22;51131;52.298;13.686;2023-05-29T11:51:20;19.90;60.00
64705;DHT22;51131;52.298;13.686;2023-05-29T11:53:47;19.90;60.60
64705;DHT22;51131;52.298;13.686;2023-05-29T11:56:14;19.90;60.30
64705;DHT22;51131;52.298;13.686;2023-05-29T11:58:41;19.90;60.50
64705;DHT22;51131;52.298;13.686;2023-05-29T12:01:08;19.90;60.20
64705;DHT22;51131;52.298;13.686;2023-05-29T12:03:39;20.00;60.40
64705;DHT22;51131;52.298;13.686;2023-05-29T12:06:06;20.00;60.30
64705;DHT22;51131;52.298;13.686;2023-05-29T12:08:33;20.00;60.20
64705;DHT22;51131;52.298;13.686;2023-05-29T12:11:01;20.00;59.90
64705;DHT22;51131;52.298;13.686;2023-05-29T12:13:28;20.00;60.20
64705;DHT22;51131;52.298;13.686;2023-05-29T12:15:56;20.00;60.20
64705;DHT22;51131;52.298;13.686;2023-05-29T12:18:24;20.00;59.90
64705;DHT22;51131;52.298;13.686;2023-05-29T12:20:56;20.10;59.10
64705;DHT22;51131;52.298;13.686;2023-05-29T12:23:23;20.00;59.60
64705;DHT22;51131;52.298;13.686;2023-05-29T12:25:51;20.10;59.60
64705;DHT22;51131;52.298;13.686;2023-05-29T12:28:18;20.20;59.50
64705;DHT22;51131;52.298;13.686;2023-05-29T12:30:47;20.10;59.60
64705;DHT22;51131;52.298;13.686;2023-05-29T12:33:29;20.40;59.80
64705;DHT22;51131;52.298;13.686;2023-05-29T12:36:03;20.00;59.80
64705;DHT22;51131;52.298;13.686;2023-05-29T12:38:30;20.00;59.90
64705;DHT22;51131;52.298;13.686;2023-05-29T12:40:57;20.10;59.50
64705;DHT22;51131;52.298;13.686;2023-05-29T12:43:23;20.10;59.90
64705;DHT22;51131;52.298;13.686;2023-05-29T12:45:54;20.10;60.10
64705;DHT22;51131;52.298;13.686;2023-05-29T12:48:25;20.10;59.20
64705;DHT22;51131;52.298;13.686;2023-05-29T12:50:52;20.10;59.20
64705;DHT22;51131;52.298;13.686;2023-05-29T12:53:19;20.10;59.20
64705;DHT22;51131;52.298;13.686;2023-05-29T12:55:46;20.10;59.30
64705;DHT22;51131;52.298;13.686;2023-05-29T12:58:13;20.00;59.50
64705;DHT22;51131;52.298;13.686;2023-05-29T13:00:41;20.00;60.10
64705;DHT22;51131;52.298;13.686;2023-05-29T13:03:08;20.10;58.20
64705;DHT22;51131;52.298;13.686;2023-05-29T13:05:36;20.10;57.90
64705;DHT22;51131;52.298;13.686;2023-05-29T13:08:03;20.10;58.60
64705;DHT22;51131;52.298;13.686;2023-05-29T13:10:31;20.10;58.60
64705;DHT22;51131;52.298;13.686;2023-05-29T13:12:58;20.10;58.60
64705;DHT22;51131;52.298;13.686;2023-05-29T13:15:25;20.10;58.80
64705;DHT22;51131;52.298;13.686;2023-05-29T13:17:53;20.10;59.20
64705;DHT22;51131;52.298;13.686;2023-05-29T13:20:19;20.10;59.20
64705;DHT22;51131;52.298;13.686;2023-05-29T13:22:47;20.10;59.20
64705;DHT22;51131;52.298;13.686;2023-05-29T13:25:14;20.10;59.10
64705;DHT22;51131;52.298;13.686;2023-05-29T13:27:42;20.10;59.20
64705;DHT22;51131;52.298;13.686;2023-05-29T13:30:09;20.10;59.20
64705;DHT22;51131;52.298;13.686;2023-05-29T13:32:36;20.10;59.20
64705;DHT22;51131;52.298;13.686;2023-05-29T13:35:03;20.10;59.10
64705;DHT22;51131;52.298;13.686;2023-05-29T13:37:30;20.10;59.50
64705;DHT22;51131;52.298;13.686;2023-05-29T13:39:57;20.10;59.30
64705;DHT22;51131;52.298;13.686;2023-05-29T13:42:24;20.10;59.40
64705;DHT22;51131;52.298;13.686;2023-05-29T13:44:53;20.10;59.30
64705;DHT22;51131;52.298;13.686;2023-05-29T13:47:19;20.10;59.30
64705;DHT22;51131;52.298;13.686;2023-05-29T13:49:46;20.10;58.70
64705;DHT22;51131;52.298;13.686;2023-05-29T13:52:13;20.10;58.90
64705;DHT22;51131;52.298;13.686;2023-05-29T13:54:39;20.10;59.10
64705;DHT22;51131;52.298;13.686;2023-05-29T13:57:06;20.00;58.80
64705;DHT22;51131;52.298;13.686;2023-05-29T13:59:33;20.00;59.20
64705;DHT22;51131;52.298;13.686;2023-05-29T14:02:00;20.00;59.00
64705;DHT22;51131;52.298;13.686;2023-05-29T14:04:28;20.10;59.40
64705;DHT22;51131;52.298;13.686;2023-05-29T14:06:55;20.00;59.10
64705;DHT22;51131;52.298;13.686;2023-05-29T14:09:23;20.00;59.30
64705;DHT22;51131;52.298;13.686;2023-05-29T14:11:54;20.00;59.70
64705;DHT22;51131;52.298;13.686;2023-05-29T14:14:21;20.00;59.40
64705;DHT22;51131;52.298;13.686;2023-05-29T14:16:48;20.00;59.50
64705;DHT22;51131;52.298;13.686;2023-05-29T14:19:15;20.00;59.50
64705;DHT22;51131;52.298;13.686;2023-05-29T14:21:42;20.00;59.60
64705;DHT22;51131;52.298;13.686;2023-05-29T14:24:09;20.00;59.80
64705;DHT22;51131;52.298;13.686;2023-05-29T14:26:36;20.10;59.20
64705;DHT22;51131;52.298;13.686;2023-05-29T14:29:03;20.00;58.90
64705;DHT22;51131;52.298;13.686;2023-05-29T14:31:40;20.10;59.60
64705;DHT22;51131;52.298;13.686;2023-05-29T14:34:06;20.00;59.50
64705;DHT22;51131;52.298;13.686;2023-05-29T14:36:33;20.00;59.50
64705;DHT22;51131;52.298;13.686;2023-05-29T14:39:00;20.00;59.70
64705;DHT22;51131;52.298;13.686;2023-05-29T14:41:27;20.00;59.50
64705;DHT22;51131;52.298;13.686;2023-05-29T14:43:53;20.00;59.70
64705;DHT22;51131;52.298;13.686;2023-05-29T14:46:27;20.10;59.90
64705;DHT22;51131;52.298;13.686;2023-05-29T14:48:58;20.00;60.10
64705;DHT22;51131;52.298;13.686;2023-05-29T14:51:25;20.10;60.30
64705;DHT22;51131;52.298;13.686;2023-05-29T14:53:51;19.90;60.00
64705;DHT22;51131;52.298;13.686;2023-05-29T14:56:18;19.90;60.30
64705;DHT22;51131;52.298;13.686;2023-05-29T14:58:45;20.00;60.60
64705;DHT22;51131;52.298;13.686;2023-05-29T15:01:12;19.90;60.50
64705;DHT22;51131;52.298;13.686;2023-05-29T15:03:39;19.90;60.50
64705;DHT22;51131;52.298;13.686;2023-05-29T15:06:05;19.90;60.80
64705;DHT22;51131;52.298;13.686;2023-05-29T15:08:33;19.90;60.80
64705;DHT22;51131;52.298;13.686;2023-05-29T15:11:03;19.90;60.20
64705;DHT22;51131;52.298;13.686;2023-05-29T15:13:29;19.90;60.40
64705;DHT22;51131;52.298;13.686;2023-05-29T15:15:56;19.90;60.50
64705;DHT22;51131;52.298;13.686;2023-05-29T15:18:26;19.90;60.10
64705;DHT22;51131;52.298;13.686;2023-05-29T15:20:53;19.90;60.70
64705;DHT22;51131;52.298;13.686;2023-05-29T15:23:21;20.10;60.90
64705;DHT22;51131;52.298;13.686;2023-05-29T15:25:49;19.90;60.70
64705;DHT22;51131;52.298;13.686;2023-05-29T15:28:16;19.90;61.50
64705;DHT22;51131;52.298;13.686;2023-05-29T15:30:44;19.90;61.70
64705;DHT22;51131;52.298;13.686;2023-05-29T15:33:11;19.90;61.10